createdAt,value
2022-09-10T00:00:10.178Z,5.20
2022-09-10T00:04:16.766Z,5.60
2022-09-10T00:08:21.904Z,4.70
2022-09-10T00:12:27.024Z,4.57
2022-09-10T00:16:31.392Z,4.20
2022-09-10T00:20:34.666Z,4.40
2022-09-10T00:24:38.928Z,4.30
2022-09-10T00:28:43.889Z,4.17
2022-09-10T00:32:52.650Z,4.23
2022-09-10T00:36:55.934Z,4.80
2022-09-10T00:41:04.904Z,3.53
2022-09-10T00:45:19.016Z,3.90
2022-09-10T00:49:30.004Z,4.63
2022-09-10T00:53:34.233Z,3.77
2022-09-10T00:57:39.217Z,4.33
2022-09-10T01:01:44.356Z,3.87
2022-09-10T01:05:48.524Z,3.90
2022-09-10T01:09:53.154Z,4.27
2022-09-10T01:14:16.807Z,4.03
2022-09-10T01:18:34.220Z,4.47
2022-09-10T01:22:49.757Z,3.87
2022-09-10T01:27:20.722Z,4.10
2022-09-10T01:31:32.444Z,4.90
2022-09-10T01:35:40.899Z,3.90
2022-09-10T01:39:45.906Z,3.77
2022-09-10T01:43:50.542Z,4.33
2022-09-10T01:48:09.716Z,4.97
2022-09-10T01:52:26.442Z,4.43
2022-09-10T01:56:39.446Z,4.93
2022-09-10T02:00:50.139Z,3.80
2022-09-10T02:04:54.747Z,4.37
2022-09-10T02:09:00.345Z,5.30
2022-09-10T02:13:03.935Z,4.60
2022-09-10T02:17:08.489Z,5.53
2022-09-10T02:21:13.472Z,4.63
2022-09-10T02:25:17.446Z,6.20
2022-09-10T02:29:20.705Z,4.50
2022-09-10T02:33:25.368Z,5.80
2022-09-10T02:37:28.623Z,5.13
2022-09-10T02:41:34.089Z,5.57
2022-09-10T02:45:38.616Z,5.67
2022-09-10T02:49:45.928Z,5.77
2022-09-10T02:53:49.326Z,6.00
2022-09-10T02:57:52.673Z,5.27
2022-09-10T03:01:56.442Z,5.40
2022-09-10T03:06:01.175Z,4.87
2022-09-10T03:10:06.018Z,6.20
2022-09-10T03:14:13.201Z,5.37
2022-09-10T03:18:16.454Z,5.20
2022-09-10T03:22:21.439Z,5.57
2022-09-10T03:26:26.357Z,5.43
2022-09-10T03:30:29.547Z,4.47
2022-09-10T03:34:32.724Z,5.50
2022-09-10T03:38:37.532Z,6.47
2022-09-10T03:42:40.746Z,5.80
2022-09-10T03:46:45.692Z,6.10
2022-09-10T03:50:51.353Z,5.60
2022-09-10T03:54:58.513Z,5.70
2022-09-10T03:59:01.840Z,4.83
2022-09-10T04:03:05.466Z,5.73
2022-09-10T04:07:08.694Z,5.43
2022-09-10T04:11:13.857Z,5.27
2022-09-10T04:15:17.458Z,5.40
2022-09-10T04:19:20.967Z,14.60
2022-09-10T04:23:24.248Z,6.27
2022-09-10T04:27:28.871Z,8.67
2022-09-10T04:31:34.777Z,9.97
2022-09-10T04:35:39.526Z,5.57
2022-09-10T04:39:43.772Z,6.23
2022-09-10T04:43:49.442Z,7.30
2022-09-10T04:47:54.366Z,5.83
2022-09-10T04:51:57.665Z,6.80
2022-09-10T04:56:00.960Z,7.57
2022-09-10T05:00:09.170Z,6.93
2022-09-10T05:04:12.363Z,7.90
2022-09-10T05:08:15.728Z,6.87
2022-09-10T05:12:20.104Z,6.10
2022-09-10T05:16:24.810Z,7.40
2022-09-10T05:20:28.610Z,7.13
2022-09-10T05:24:32.021Z,8.37
2022-09-10T05:28:39.741Z,7.20
2022-09-10T05:32:44.704Z,6.93
2022-09-10T05:36:48.915Z,7.47
2022-09-10T05:40:52.442Z,7.10
2022-09-10T05:44:55.998Z,7.20
2022-09-10T05:49:01.016Z,7.07
2022-09-10T05:53:04.680Z,8.03
2022-09-10T05:57:08.161Z,6.77
2022-09-10T06:01:11.734Z,6.67
2022-09-10T06:05:16.468Z,6.03
2022-09-10T06:09:20.405Z,6.53
2022-09-10T06:13:24.083Z,7.50
2022-09-10T06:17:27.448Z,7.00
2022-09-10T06:21:32.485Z,7.23
2022-09-10T06:25:35.768Z,6.57
2022-09-10T06:29:39.227Z,7.10
2022-09-10T06:33:42.422Z,6.73
2022-09-10T06:37:47.447Z,7.17
2022-09-10T06:41:50.600Z,6.80
2022-09-10T06:45:54.980Z,6.80
2022-09-10T06:49:58.534Z,6.53
2022-09-10T06:54:03.306Z,7.10
2022-09-10T06:58:06.510Z,6.50
2022-09-10T07:02:10.390Z,7.53
2022-09-10T07:06:15.815Z,6.73
2022-09-10T07:10:20.662Z,6.03
2022-09-10T07:14:23.907Z,6.60
2022-09-10T07:18:28.848Z,5.00
2022-09-10T07:22:32.466Z,5.33
2022-09-10T07:26:37.369Z,5.40
2022-09-10T07:30:41.161Z,5.10
2022-09-10T07:34:44.538Z,8.73
2022-09-10T07:38:48.061Z,4.43
2022-09-10T07:42:53.304Z,4.70
2022-09-10T07:46:56.551Z,4.30
2022-09-10T07:51:04.029Z,3.50
2022-09-10T07:55:08.127Z,1.20
2022-09-10T07:59:13.306Z,1.80
2022-09-10T08:03:18.508Z,1.63
2022-09-10T08:07:22.015Z,2.00
2022-09-10T08:11:26.620Z,1.80
2022-09-10T08:15:31.163Z,1.80
2022-09-10T08:19:36.759Z,1.30
2022-09-10T08:23:40.538Z,1.50
2022-09-10T08:27:43.904Z,1.27
2022-09-10T08:31:48.631Z,1.00
2022-09-10T08:35:57.138Z,1.37
2022-09-10T08:40:01.337Z,1.60
2022-09-10T08:44:08.135Z,1.20
2022-09-10T08:48:18.934Z,1.27
2022-09-10T08:52:31.225Z,0.90
2022-09-10T08:56:35.671Z,0.90
2022-09-10T09:00:44.254Z,0.70
2022-09-10T09:04:55.164Z,0.97
2022-09-10T09:09:01.267Z,0.90
2022-09-10T09:13:35.192Z,0.60
2022-09-10T09:17:52.632Z,0.73
2022-09-10T09:22:01.631Z,0.80
2022-09-10T09:26:11.558Z,1.00
2022-09-10T09:30:19.875Z,1.00
2022-09-10T09:34:33.190Z,1.00
2022-09-10T09:38:41.649Z,0.80
2022-09-10T09:42:52.567Z,0.77
2022-09-10T09:46:56.504Z,1.00
2022-09-10T09:51:00.637Z,1.00
2022-09-10T09:55:15.217Z,1.20
2022-09-10T09:59:30.397Z,1.00
2022-09-10T10:03:36.995Z,1.23
2022-09-10T10:07:40.649Z,0.77
2022-09-10T10:11:50.151Z,0.90
2022-09-10T10:15:54.205Z,0.70
2022-09-10T10:20:04.537Z,1.00
2022-09-10T10:24:31.790Z,0.90
2022-09-10T10:28:36.410Z,0.80
2022-09-10T10:32:44.758Z,0.90
2022-09-10T10:36:57.229Z,0.70
2022-09-10T10:41:17.440Z,0.67
2022-09-10T10:45:37.193Z,1.00
2022-09-10T10:49:52.219Z,0.93
2022-09-10T10:54:11.188Z,0.60
2022-09-10T10:58:40.296Z,0.60
2022-09-10T11:02:54.506Z,0.90
2022-09-10T11:07:03.931Z,0.70
2022-09-10T11:11:14.396Z,0.80
2022-09-10T11:15:29.479Z,0.63
2022-09-10T11:19:38.684Z,0.70
2022-09-10T11:23:51.733Z,0.53
2022-09-10T11:28:02.233Z,0.60
2022-09-10T11:32:09.744Z,0.60
2022-09-10T11:36:23.264Z,0.90
2022-09-10T11:40:34.007Z,0.93
2022-09-10T11:44:47.335Z,0.70
2022-09-10T11:48:55.233Z,0.60
2022-09-10T11:53:01.554Z,0.90
2022-09-10T11:57:11.456Z,0.80
2022-09-10T12:01:24.664Z,0.60
2022-09-10T12:05:36.503Z,0.50
2022-09-10T12:09:51.750Z,0.80
2022-09-10T12:13:57.679Z,0.80
2022-09-10T12:18:06.855Z,0.90
2022-09-10T12:22:21.303Z,0.50
2022-09-10T12:26:33.292Z,0.70
2022-09-10T12:31:09.846Z,1.00
2022-09-10T12:35:53.441Z,0.80
2022-09-10T12:40:35.488Z,0.60
2022-09-10T12:44:58.016Z,0.70
2022-09-10T12:49:13.030Z,0.70
2022-09-10T12:54:06.006Z,0.70
2022-09-10T12:58:22.355Z,0.73
2022-09-10T13:02:33.563Z,0.80
2022-09-10T13:06:40.172Z,0.90
2022-09-10T13:10:50.612Z,1.87
2022-09-10T13:14:57.584Z,0.97
2022-09-10T13:19:43.379Z,0.90
2022-09-10T13:23:48.890Z,1.20
2022-09-10T13:27:52.071Z,1.00
2022-09-10T13:32:02.069Z,0.90
2022-09-10T13:36:23.440Z,0.90
2022-09-10T13:40:49.198Z,1.50
2022-09-10T13:45:21.954Z,1.00
2022-09-10T13:49:33.820Z,0.67
2022-09-10T13:53:42.600Z,0.80
2022-09-10T13:57:52.583Z,1.23
2022-09-10T14:01:57.840Z,0.80
2022-09-10T14:06:05.359Z,1.10
2022-09-10T14:10:12.611Z,1.60
2022-09-10T14:14:30.376Z,0.70
2022-09-10T14:18:43.408Z,0.90
2022-09-10T14:22:50.571Z,0.93
2022-09-10T14:27:16.686Z,0.60
2022-09-10T14:31:30.002Z,1.20
2022-09-10T14:35:40.816Z,0.83
2022-09-10T14:39:45.685Z,1.00
2022-09-10T14:43:52.348Z,1.10
2022-09-10T14:47:56.197Z,1.17
2022-09-10T14:52:00.147Z,0.83
2022-09-10T14:56:03.938Z,1.00
2022-09-10T15:00:15.465Z,0.83
2022-09-10T15:04:23.758Z,0.80
2022-09-10T15:08:27.271Z,1.37
2022-09-10T15:12:32.142Z,1.00
2022-09-10T15:16:37.808Z,1.20
2022-09-10T15:20:43.202Z,1.43
2022-09-10T15:25:08.060Z,1.00
2022-09-10T15:29:10.737Z,0.80
2022-09-10T15:33:15.495Z,1.50
2022-09-10T15:37:19.117Z,1.30
2022-09-10T15:41:22.861Z,1.47
2022-09-10T15:45:26.550Z,1.37
2022-09-10T15:49:45.405Z,2.10
2022-09-10T15:53:49.439Z,1.20
2022-09-10T15:57:53.212Z,1.23
2022-09-10T16:01:56.464Z,1.20
2022-09-10T16:06:05.771Z,1.23
2022-09-10T16:10:09.360Z,1.60
2022-09-10T16:14:16.965Z,1.43
2022-09-10T16:18:20.160Z,1.33
2022-09-10T16:22:25.154Z,1.17
2022-09-10T16:35:40.166Z,1.40
2022-09-10T16:39:45.037Z,0.90
2022-09-10T16:43:48.397Z,1.03
2022-09-10T16:47:52.249Z,1.20
2022-09-10T16:51:55.570Z,1.40
2022-09-10T16:56:05.229Z,1.40
2022-09-10T17:00:10.517Z,1.80
2022-09-10T17:04:19.229Z,2.30
2022-09-10T17:08:25.494Z,1.53
2022-09-10T17:12:30.179Z,1.03
2022-09-10T17:16:35.536Z,1.43
2022-09-10T17:20:39.281Z,1.90
2022-09-10T17:24:42.726Z,1.27
2022-09-10T17:28:54.300Z,1.50
2022-09-10T17:32:59.735Z,1.77
2022-09-10T17:37:02.980Z,1.77
2022-09-10T17:41:06.762Z,1.83
2022-09-10T17:45:13.612Z,1.67
2022-09-10T17:49:17.308Z,1.80
2022-09-10T17:53:26.658Z,2.40
2022-09-10T17:57:38.401Z,1.40
2022-09-10T18:01:44.832Z,1.47
2022-09-10T18:05:50.942Z,1.50
2022-09-10T18:09:57.625Z,1.00
2022-09-10T18:14:11.873Z,1.73
2022-09-10T18:18:18.123Z,1.67
2022-09-10T18:22:36.353Z,1.53
2022-09-10T18:26:44.246Z,1.63
2022-09-10T18:30:56.449Z,1.10
2022-09-10T18:35:16.394Z,1.27
2022-09-10T18:39:23.454Z,1.20
2022-09-10T18:43:38.416Z,1.80
2022-09-10T18:47:56.764Z,1.77
2022-09-10T18:52:09.092Z,1.30
2022-09-10T18:56:19.488Z,1.23
2022-09-10T19:00:25.014Z,1.03
2022-09-10T19:05:07.472Z,1.20
2022-09-10T19:09:13.030Z,1.57
2022-09-10T19:13:22.923Z,1.57
2022-09-10T19:17:35.899Z,1.70
2022-09-10T19:21:40.936Z,1.67
2022-09-10T19:25:53.120Z,1.70
2022-09-10T19:29:57.734Z,1.70
2022-09-10T19:34:03.414Z,2.30
2022-09-10T19:38:27.236Z,3.37
2022-09-10T19:42:32.362Z,2.97
2022-09-10T19:46:38.743Z,3.30
2022-09-10T19:50:42.657Z,2.50
2022-09-10T19:54:46.165Z,3.40
2022-09-10T19:58:53.114Z,2.67
2022-09-10T20:02:56.775Z,1.80
2022-09-10T20:07:00.719Z,3.10
2022-09-10T20:11:06.246Z,2.40
2022-09-10T20:15:11.638Z,2.20
2022-09-10T20:19:18.983Z,1.90
2022-09-10T20:23:23.101Z,2.07
2022-09-10T20:27:27.685Z,1.90
2022-09-10T20:31:34.272Z,1.90
2022-09-10T20:35:37.604Z,2.20
2022-09-10T20:39:42.799Z,2.10
2022-09-10T20:43:49.985Z,2.87
2022-09-10T20:47:54.492Z,4.13
2022-09-10T20:51:59.640Z,2.50
2022-09-10T20:56:05.786Z,1.90
2022-09-10T21:00:11.543Z,2.20
2022-09-10T21:04:16.350Z,1.97
2022-09-10T21:08:20.418Z,2.13
2022-09-10T21:12:23.681Z,1.73
2022-09-10T21:16:28.420Z,2.20
2022-09-10T21:20:32.982Z,2.30
2022-09-10T21:24:36.564Z,2.17
2022-09-10T21:28:39.884Z,1.93
2022-09-10T21:32:43.077Z,2.30
2022-09-10T21:36:47.812Z,2.40
2022-09-10T21:40:57.505Z,2.70
2022-09-10T21:45:01.453Z,1.90
2022-09-10T21:49:05.214Z,2.20
2022-09-10T21:53:11.335Z,2.23
2022-09-10T21:57:15.553Z,2.27
2022-09-10T22:01:20.847Z,3.07
2022-09-10T22:05:24.156Z,2.20
2022-09-10T22:09:28.696Z,2.20
2022-09-10T22:13:33.123Z,1.97
2022-09-10T22:17:36.262Z,2.40
2022-09-10T22:21:40.961Z,2.40
2022-09-10T22:25:45.468Z,2.47
2022-09-10T22:29:48.769Z,2.10
2022-09-10T22:33:55.186Z,2.00
2022-09-10T22:37:58.822Z,2.90
2022-09-10T22:42:04.550Z,3.00
2022-09-10T22:46:08.428Z,2.10
2022-09-10T22:50:12.630Z,2.10
2022-09-10T22:54:17.538Z,2.03
2022-09-10T22:58:22.368Z,2.40
2022-09-10T23:02:25.597Z,2.70
2022-09-10T23:06:31.440Z,2.43
2022-09-10T23:10:34.893Z,2.60
2022-09-10T23:14:39.403Z,2.50
2022-09-10T23:18:44.647Z,2.17
2022-09-10T23:22:49.541Z,2.10
2022-09-10T23:26:53.277Z,1.90
2022-09-10T23:31:08.243Z,2.33
2022-09-10T23:35:11.614Z,2.07
2022-09-10T23:39:16.538Z,2.83
2022-09-10T23:43:19.744Z,3.10
2022-09-10T23:47:24.330Z,2.20
2022-09-10T23:51:27.945Z,2.40
2022-09-10T23:55:31.226Z,1.93
2022-09-10T23:59:34.544Z,2.23
